Pagrindinis puslapis
METAR-TAF:

METAR-TAF

Oro uostai :

El Palomar, Argentina

platuma: 34-36S, ilguma: 058-36W, Aukštis: 18 m

Dabartinis oras

Ataskaita buvo paskelbta 5 valandos ir 4 minutes, ne 11:49 UTC
Vėjas 2 kt iš Šiaurės
Temperatūra 14°C
Drėgmė 100%
Slėgis 1009 hPa
Matomumas: 5000 m
Išsisklaidę debesys ne aukštis 300 ft
Su prošvaistėmis ne aukštis 20000 ft
rūkana

METAR: SADP 151149Z 01002KT 5000 BR SCT003 BKN200 14/14 Q1009

Laikas: 13:53 (16:53 UTC)


TAF: trūkstamas

Orai ataskaitas ir orų prognozės (METAR, TAF).

turimą stotys yra geltonos ir raudonos taškus žemėlapyje.

Perkelti pele per norėdami pamatyti stoties vardą.

Tada spustelėkite, norėdami matyti oro stebėjimo ir prognozės.

Norėdami pakeisti žemėlapį: spustelėkite ant žalios mygtukų su juodo kryžiaus žemyn,; žalią mygtuką su brūkšneliu, jei norite nutolinti; arba žalių rodyklių gretimoms žemėlapius.


METAR-TAF: